createdAt,value
2022-12-25T00:04:01.305Z,57.20
2022-12-25T00:09:31.671Z,44.25
2022-12-25T00:15:01.145Z,41.80
2022-12-25T00:20:28.817Z,29.45
2022-12-25T00:25:59.682Z,31.80
2022-12-25T00:31:29.437Z,33.63
2022-12-25T00:36:59.671Z,34.10
2022-12-25T00:47:57.458Z,34.88
2022-12-25T00:53:26.875Z,35.55
2022-12-25T00:58:52.236Z,33.95
2022-12-25T01:04:15.849Z,33.13
2022-12-25T01:09:57.948Z,29.27
2022-12-25T01:15:28.418Z,35.60
2022-12-25T01:20:56.865Z,35.83
2022-12-25T01:26:27.411Z,37.83
2022-12-25T01:31:57.439Z,33.72
2022-12-25T01:37:26.241Z,35.33
2022-12-25T01:42:55.083Z,29.05
2022-12-25T01:48:23.055Z,35.65
2022-12-25T01:53:47.397Z,31.80
2022-12-25T01:59:13.251Z,31.38
2022-12-25T02:04:46.953Z,35.28
2022-12-25T02:10:16.014Z,33.92
2022-12-25T02:15:48.687Z,44.50
2022-12-25T02:21:42.580Z,39.58
2022-12-25T02:27:19.312Z,33.42
2022-12-25T02:32:48.223Z,30.23
2022-12-25T02:38:19.630Z,32.67
2022-12-25T02:44:04.177Z,31.85
2022-12-25T02:49:48.715Z,25.95
2022-12-25T02:55:37.965Z,30.90
2022-12-25T03:01:25.827Z,33.35
2022-12-25T03:07:04.708Z,32.58
2022-12-25T03:12:39.846Z,27.73
2022-12-25T03:18:04.763Z,30.42
2022-12-25T03:23:55.453Z,28.63
2022-12-25T03:29:42.230Z,27.10
2022-12-25T03:35:24.235Z,25.58
2022-12-25T03:41:21.784Z,25.92
2022-12-25T03:47:07.046Z,35.67
2022-12-25T03:52:49.268Z,26.08
2022-12-25T03:58:38.276Z,35.70
2022-12-25T04:04:24.530Z,35.67
2022-12-25T04:10:05.758Z,36.25
2022-12-25T04:15:46.963Z,35.22
2022-12-25T04:21:29.937Z,39.92
2022-12-25T04:27:16.398Z,42.88
2022-12-25T04:33:07.216Z,43.15
2022-12-25T04:38:36.897Z,47.00
2022-12-25T04:44:00.437Z,42.88
2022-12-25T04:49:26.214Z,47.50
2022-12-25T04:54:49.031Z,43.88
2022-12-25T05:00:19.110Z,51.67
2022-12-25T05:05:43.953Z,54.05
2022-12-25T05:11:15.920Z,59.17
2022-12-25T05:16:41.520Z,57.15
2022-12-25T05:22:12.561Z,58.63
2022-12-25T05:27:36.142Z,75.03
2022-12-25T05:33:05.317Z,69.72
2022-12-25T05:38:30.095Z,58.05
2022-12-25T05:43:54.590Z,63.17
2022-12-25T05:49:18.406Z,57.85
2022-12-25T05:54:42.707Z,50.10
2022-12-25T06:00:07.262Z,56.28
2022-12-25T06:05:35.666Z,58.72
2022-12-25T06:11:00.561Z,60.13
2022-12-25T06:16:24.203Z,63.88
2022-12-25T06:21:47.744Z,63.45
2022-12-25T06:27:12.781Z,52.25
2022-12-25T06:32:37.640Z,37.97
2022-12-25T06:38:01.282Z,43.40
2022-12-25T06:43:26.349Z,41.47
2022-12-25T06:48:50.297Z,40.90
2022-12-25T06:54:14.015Z,38.40
2022-12-25T06:59:38.815Z,46.33
2022-12-25T07:05:03.176Z,37.47
2022-12-25T07:10:26.447Z,39.75
2022-12-25T07:15:56.951Z,43.17
2022-12-25T07:21:22.092Z,51.38
2022-12-25T07:26:45.992Z,45.97
2022-12-25T07:32:11.049Z,44.42
2022-12-25T07:37:34.347Z,39.65
2022-12-25T07:43:03.474Z,41.20
2022-12-25T07:48:29.193Z,37.75
2022-12-25T07:53:52.738Z,36.95
2022-12-25T07:59:16.430Z,41.40
2022-12-25T08:04:41.283Z,43.28
2022-12-25T08:10:05.899Z,45.55
2022-12-25T08:21:34.735Z,44.03
2022-12-25T08:27:04.714Z,48.00
2022-12-25T08:32:35.406Z,45.25
2022-12-25T08:38:05.643Z,44.17
2022-12-25T08:43:35.280Z,48.53
2022-12-25T08:49:04.090Z,43.83
2022-12-25T08:54:36.453Z,49.70
2022-12-25T09:00:05.988Z,45.75
2022-12-25T09:11:08.235Z,55.85
2022-12-25T09:16:37.465Z,59.13
2022-12-25T09:22:06.177Z,61.25
2022-12-25T09:27:36.576Z,56.93
2022-12-25T09:33:04.866Z,58.78
2022-12-25T09:38:35.330Z,52.65
2022-12-25T09:44:09.519Z,64.80
2022-12-25T09:49:43.117Z,59.40
2022-12-25T09:55:19.945Z,65.07
2022-12-25T10:01:01.135Z,65.82
2022-12-25T10:06:41.769Z,70.45
2022-12-25T10:12:30.475Z,72.97
2022-12-25T10:18:37.348Z,67.82
2022-12-25T10:24:20.088Z,67.50
2022-12-25T10:29:53.350Z,74.40
2022-12-25T10:35:24.863Z,57.97
2022-12-25T10:41:06.292Z,54.45
2022-12-25T10:46:35.800Z,59.92
2022-12-25T10:52:19.991Z,73.13
2022-12-25T10:57:50.294Z,88.57
2022-12-25T11:03:24.682Z,93.80
2022-12-25T11:08:58.603Z,83.93
2022-12-25T14:26:35.260Z,103.40
2022-12-25T14:32:01.387Z,92.50
2022-12-25T14:37:29.359Z,87.45
2022-12-25T14:43:00.124Z,93.63
2022-12-25T14:48:33.866Z,97.10
2022-12-25T14:54:00.343Z,79.13
2022-12-25T14:59:30.751Z,76.57
2022-12-25T15:04:57.035Z,86.05
2022-12-25T15:10:59.155Z,74.22
2022-12-25T15:16:22.687Z,84.45
2022-12-25T15:21:51.515Z,78.97
2022-12-25T15:27:21.379Z,95.47
2022-12-25T15:32:49.642Z,96.18
2022-12-25T15:38:18.503Z,99.68
2022-12-25T15:43:43.158Z,124.28
2022-12-25T15:49:11.318Z,103.07
2022-12-25T15:54:35.251Z,106.80
2022-12-25T15:59:59.496Z,81.00
2022-12-25T16:05:24.325Z,84.40
2022-12-25T16:10:53.910Z,86.35
2022-12-25T16:16:22.792Z,75.88
2022-12-25T16:21:48.441Z,101.88
2022-12-25T16:27:11.953Z,93.90
2022-12-25T16:32:42.304Z,88.13
2022-12-25T16:43:41.336Z,62.97
2022-12-25T16:49:10.418Z,83.05
2022-12-25T16:54:40.639Z,65.17
2022-12-25T17:00:10.421Z,67.38
2022-12-25T17:05:39.219Z,66.47
2022-12-25T17:11:10.028Z,65.37
2022-12-25T17:16:40.555Z,60.75
2022-12-25T17:22:09.034Z,89.53
2022-12-25T17:27:39.711Z,61.40
2022-12-25T17:33:08.046Z,73.28
2022-12-25T17:38:38.168Z,61.17
2022-12-25T17:44:08.423Z,70.38
2022-12-25T17:49:37.523Z,69.60
2022-12-25T17:55:07.657Z,89.83
2022-12-25T18:00:38.168Z,69.28
2022-12-25T18:06:09.860Z,62.33
2022-12-25T18:11:41.055Z,62.20
2022-12-25T18:17:11.738Z,59.85
2022-12-25T18:22:41.709Z,54.67
2022-12-25T18:28:10.862Z,60.22
2022-12-25T18:33:45.126Z,64.15
2022-12-25T18:39:19.085Z,55.88
2022-12-25T18:44:58.221Z,59.75
2022-12-25T18:50:33.917Z,63.10
2022-12-25T18:56:08.423Z,65.55
2022-12-25T19:02:02.875Z,59.80
2022-12-25T19:07:38.622Z,61.08
2022-12-25T19:13:15.506Z,68.38
2022-12-25T19:18:49.929Z,69.97
2022-12-25T19:24:29.733Z,71.05
2022-12-25T19:29:59.997Z,73.10
2022-12-25T19:35:29.532Z,91.07
2022-12-25T19:41:07.461Z,84.55
2022-12-25T19:46:38.131Z,80.28
2022-12-25T19:52:07.785Z,77.20
2022-12-25T19:57:45.691Z,99.13
2022-12-25T20:03:18.084Z,92.47
2022-12-25T20:08:47.748Z,91.80
2022-12-25T20:14:16.131Z,95.32
2022-12-25T20:19:43.718Z,90.40
2022-12-25T20:25:09.600Z,90.43
2022-12-25T20:30:40.987Z,95.00
2022-12-25T20:36:08.459Z,97.93
2022-12-25T20:41:34.884Z,82.97
2022-12-25T20:47:01.267Z,87.68
2022-12-25T20:52:30.782Z,80.55
2022-12-25T21:03:27.105Z,76.85
2022-12-25T21:08:56.238Z,60.15
2022-12-25T21:14:26.209Z,75.10
2022-12-25T21:19:53.364Z,61.15
2022-12-25T21:25:17.339Z,75.82
2022-12-25T21:30:46.345Z,68.82
2022-12-25T21:36:16.640Z,72.63
2022-12-25T21:41:45.409Z,55.05
2022-12-25T21:47:09.188Z,59.42
2022-12-25T21:52:39.820Z,49.53
2022-12-25T21:58:04.710Z,73.20
2022-12-25T22:03:33.486Z,58.13
2022-12-25T22:09:06.443Z,57.30
2022-12-25T22:14:57.999Z,53.95
2022-12-25T22:20:30.120Z,56.78
2022-12-25T22:26:00.668Z,53.78
2022-12-25T22:31:29.372Z,62.08
2022-12-25T22:36:58.846Z,59.83
2022-12-25T22:42:30.639Z,80.20
2022-12-25T22:47:54.303Z,70.72
2022-12-25T22:53:18.176Z,74.13
2022-12-25T22:58:48.947Z,69.80
2022-12-25T23:04:18.767Z,65.97
2022-12-25T23:09:47.325Z,57.25
2022-12-25T23:15:15.979Z,64.18
2022-12-25T23:21:02.996Z,71.00
2022-12-25T23:31:53.751Z,74.38
2022-12-25T23:37:19.928Z,80.40
2022-12-25T23:42:46.411Z,89.05
2022-12-25T23:48:11.266Z,77.43
2022-12-25T23:53:35.919Z,74.82
2022-12-25T23:59:00.159Z,89.50
